»·PEaware :: N196EC KSNA-L45

N196EC :: KSNA-L45

FLIGHT INFORMATION

Flight Status: Arrived
Operator: Privately registered:
United States
More flights under this callsign
Pilot: Adrián R. (20842)
Aircraft: BEECH AIRCRAFT DEBONAIR BONANZA
(BE33)
More flights by this aircraft type
Origin: KSNA John Wayne-Orange Co
United States
Destination: L45 Bakersfield Mun
United States
More flights between these airports :: More routes between these airports
Route: ANAHEIM1 LHS V165 LOPES
File this flight plan on PilotEdge
Remarks:
Altitude:
(Current/Filed)
10,000ft
Speed:
(Current/Filed)
160kts
Departed: 23-Nov-18 10:27 AM
Arrived: 23-Nov-18 11:36 AM
Distance/Time
Traveled:
114nm/1:08
Distance/Time
To Go:
Arrived

Flight Plot

Page will automatically refresh every two minutes.

Flight plan parsing failed; only flown route is shown


Map Options




Map Legend


Flown Route
Filed Route
Departure Airport
Arrival Airport
Navaid (VOR, NDB)
Fix

Horizontal Profiles

Position Reports

Time Latitude Longitude Heading Altitude Ground
Speed
23-Nov-18 09:55 33.666875 -117.872527 208 59ft 0kts
23-Nov-18 09:56 33.666875 -117.872527 208 59ft 0kts
23-Nov-18 09:57 33.666875 -117.872527 208 59ft 0kts
23-Nov-18 09:58 33.666875 -117.872527 208 59ft 0kts
23-Nov-18 09:59 33.666875 -117.872527 208 59ft 0kts
23-Nov-18 10:00 33.666875 -117.872527 208 59ft 0kts
23-Nov-18 10:01 33.666875 -117.872527 208 59ft 0kts
23-Nov-18 10:02 33.666875 -117.872527 208 59ft 0kts
23-Nov-18 10:03 33.666875 -117.872527 208 59ft 0kts
23-Nov-18 10:04 33.666875 -117.872527 208 59ft 0kts
23-Nov-18 10:05 33.666875 -117.872527 208 59ft 0kts
23-Nov-18 10:06 33.666875 -117.872527 208 59ft 0kts
23-Nov-18 10:07 33.666875 -117.872527 208 59ft 0kts
23-Nov-18 10:08 33.666875 -117.872527 208 59ft 0kts
23-Nov-18 10:09 33.666875 -117.872527 208 59ft 0kts
23-Nov-18 10:10 33.666875 -117.872527 208 59ft 0kts
23-Nov-18 10:11 33.666875 -117.872527 208 59ft 0kts
23-Nov-18 10:12 33.666875 -117.872527 208 59ft 0kts
23-Nov-18 10:13 33.666875 -117.872527 208 59ft 0kts
23-Nov-18 10:14 33.666875 -117.872527 208 59ft 0kts
23-Nov-18 10:15 33.666875 -117.872527 208 59ft 0kts
23-Nov-18 10:16 33.666875 -117.872527 208 59ft 0kts
23-Nov-18 10:17 33.666875 -117.872527 208 59ft 0kts
23-Nov-18 10:18 33.666875 -117.872527 208 59ft 0kts
23-Nov-18 10:19 33.666875 -117.872527 208 59ft 0kts
23-Nov-18 10:20 33.666931 -117.872859 345 60ft 0kts
23-Nov-18 10:21 33.667010 -117.872868 2 59ft 3kts
23-Nov-18 10:22 33.669462 -117.870542 40 59ft 15kts
23-Nov-18 10:23 33.673211 -117.867682 22 59ft 14kts
23-Nov-18 10:24 33.673521 -117.867791 213 60ft 0kts
23-Nov-18 10:25 33.673518 -117.867794 215 59ft 0kts
23-Nov-18 10:26 33.673465 -117.867690 62 59ft 1kts
23-Nov-18 10:27 33.675504 -117.866182 26 59ft 14kts
23-Nov-18 10:28 33.679203 -117.863845 28 59ft 13kts
23-Nov-18 10:29 33.680091 -117.863826 300 59ft 5kts
23-Nov-18 10:30 33.675312 -117.867201 207 73ft 90kts
23-Nov-18 10:31 33.656649 -117.888955 232 1071ft 100kts
23-Nov-18 10:32 33.639692 -117.916714 233 2074ft 105kts
23-Nov-18 10:33 33.622498 -117.944520 234 3060ft 102kts
23-Nov-18 10:34 33.628939 -117.973405 299 4013ft 89kts
23-Nov-18 10:35 33.641301 -118.001964 300 4659ft 103kts
23-Nov-18 10:36 33.654692 -118.033276 300 5349ft 105kts
23-Nov-18 10:37 33.676535 -118.049018 356 5979ft 101kts
23-Nov-18 10:38 33.710199 -118.050920 357 5995ft 133kts
23-Nov-18 10:39 33.748685 -118.052978 357 5993ft 143kts
23-Nov-18 10:40 33.784986 -118.040149 59 5989ft 152kts
23-Nov-18 10:41 33.799709 -117.991481 68 5992ft 157kts
23-Nov-18 10:42 33.812840 -117.940993 69 5993ft 159kts
23-Nov-18 10:43 33.825012 -117.893689 67 6571ft 128kts
23-Nov-18 10:44 33.834194 -117.858357 65 7272ft 119kts
23-Nov-18 10:45 33.846446 -117.811121 68 6998ft 158kts
23-Nov-18 10:46 33.878091 -117.784416 3 6998ft 151kts
23-Nov-18 10:47 33.920233 -117.783875 359 6987ft 152kts
23-Nov-18 10:48 33.962433 -117.784648 358 6989ft 152kts
23-Nov-18 10:49 34.001989 -117.788879 323 7441ft 128kts
23-Nov-18 10:50 34.017910 -117.822012 296 8304ft 105kts
23-Nov-18 10:51 34.028094 -117.853411 294 8951ft 101kts
23-Nov-18 10:52 34.037839 -117.884740 294 9508ft 100kts
23-Nov-18 10:53 34.047642 -117.916438 293 9986ft 102kts
23-Nov-18 10:54 34.059058 -117.953197 293 10013ft 129kts
23-Nov-18 10:55 34.072210 -117.995886 292 10013ft 140kts
23-Nov-18 10:56 34.086002 -118.040758 292 10015ft 144kts
23-Nov-18 10:57 34.100042 -118.086523 292 10016ft 146kts
23-Nov-18 10:58 34.113178 -118.129421 292 10014ft 148kts
23-Nov-18 10:59 34.127203 -118.175345 292 10009ft 149kts
23-Nov-18 11:00 34.141487 -118.222129 292 10003ft 149kts
23-Nov-18 11:01 34.157777 -118.267606 318 9991ft 147kts
23-Nov-18 11:02 34.193665 -118.290951 331 9994ft 147kts
23-Nov-18 11:03 34.230392 -118.312695 332 9992ft 147kts
23-Nov-18 11:04 34.267238 -118.334178 332 9995ft 147kts
23-Nov-18 11:05 34.304100 -118.355621 332 10002ft 147kts
23-Nov-18 11:06 34.340983 -118.377083 332 10007ft 147kts
23-Nov-18 11:07 34.377803 -118.398525 332 10011ft 147kts
23-Nov-18 11:08 34.414634 -118.419988 332 10011ft 147kts
23-Nov-18 11:09 34.451015 -118.441203 332 10007ft 147kts
23-Nov-18 11:10 34.487905 -118.462752 332 10006ft 147kts
23-Nov-18 11:11 34.524645 -118.484232 332 9974ft 148kts
23-Nov-18 11:12 34.561818 -118.505995 332 9968ft 147kts
23-Nov-18 11:13 34.598537 -118.527491 332 9965ft 147kts
23-Nov-18 11:14 34.635168 -118.548958 331 9958ft 146kts
23-Nov-18 11:15 34.671847 -118.570470 331 9948ft 146kts
23-Nov-18 11:16 34.710267 -118.586570 339 9937ft 147kts
23-Nov-18 11:17 34.749517 -118.600645 339 9942ft 146kts
23-Nov-18 11:18 34.788552 -118.614582 339 9942ft 146kts
23-Nov-18 11:19 34.827691 -118.628538 339 9941ft 146kts
23-Nov-18 11:20 34.865566 -118.642050 339 9941ft 146kts
23-Nov-18 11:21 34.902194 -118.655164 339 9945ft 147kts
23-Nov-18 11:22 34.941357 -118.669136 340 9948ft 149kts
23-Nov-18 11:23 34.981302 -118.683396 340 9953ft 151kts
23-Nov-18 11:24 35.022368 -118.701443 314 9187ft 163kts
23-Nov-18 11:25 35.031324 -118.755270 272 8188ft 171kts
23-Nov-18 11:26 35.031373 -118.814543 271 7196ft 177kts
23-Nov-18 11:27 35.039611 -118.867980 313 6157ft 151kts
23-Nov-18 11:28 35.068333 -118.902156 320 5137ft 140kts
23-Nov-18 11:29 35.096825 -118.933512 320 4131ft 137kts
23-Nov-18 11:30 35.124579 -118.964028 320 3161ft 139kts
23-Nov-18 11:31 35.159493 -118.976751 356 3017ft 135kts
23-Nov-18 11:32 35.197764 -118.981286 356 2749ft 148kts
23-Nov-18 11:33 35.239751 -118.989298 345 2013ft 146kts
23-Nov-18 11:34 35.276636 -118.999527 352 1696ft 130kts
23-Nov-18 11:35 35.308951 -119.005378 350 1445ft 96kts
23-Nov-18 11:36 35.335306 -119.010014 356 1316ft 93kts
23-Nov-18 11:37 35.348605 -119.002010 149 892ft 68kts
23-Nov-18 11:38 35.329404 -118.996564 170 395ft 65kts
23-Nov-18 11:39 35.324400 -118.996718 264 380ft 0kts
23-Nov-18 11:40 35.324400 -118.996718 264 380ft 0kts
23-Nov-18 11:41 35.325297 -118.996894 354 380ft 12kts
23-Nov-18 11:42 35.327515 -118.997302 303 381ft 2kts
23-Nov-18 11:43 35.329532 -118.999003 324 383ft 15kts
23-Nov-18 11:44 35.331889 -119.001527 203 386ft 3kts
23-Nov-18 11:45 35.331795 -119.001531 177 386ft 0kts
23-Nov-18 11:46 35.331795 -119.001531 177 386ft 0kts

Navigation Log

Ident Type
Flight plan parsing failed, navigation log unavailable